America — WDE6076 — position and weather

sailwx.info

Track history (hours):
 
Tides and Currents Weather Stations Pressure Air Temp Water Temp Dewpoint Dewpoint Depression Visibility Wind Speed Wind Dir Waves Ship Positions

America

Owner: ET Yacht, LLC, San Diego, CA. More information available from US FCC via Universal Licensing System and Coast Guard Vessel Documentation Center.

Last reported at 2015-Feb-27 21:11 UTC. Time now 2015-Feb-28 06:56 UTC.
Position N 32°37' W 117°22'.

Length 29 m.

Type: Sailing vessel. MMSI: 367375550.

Date/timePositionNaut miles runAvg speedWind from/ knotsBaromVisibWave heightAir tempDewpointWater temp
2015-Feb-27 21:11N 32°37' W 117°22'11 5.3
2015-Feb-27 19:04N 32°43' W 117°12'0 0.0
2015-Feb-26 19:05N 32°43' W 117°12'0 0.0
2015-Feb-26 00:17N 32°43' W 117°12'0 0.2
2015-Feb-25 21:31N 32°43' W 117°11'9 0.4
2015-Feb-24 21:21N 32°37' W 117°19'8 4.1
2015-Feb-24 19:18N 32°43' W 117°12'7 0.2
2015-Feb-22 20:32N 32°36' W 117°15'6 5.6
2015-Feb-22 19:27N 32°42' W 117°13'9 0.6
2015-Feb-22 02:32N 32°44' W 117°24'9 9.4
2015-Feb-22 01:33N 32°50' W 117°33'9 9.2
2015-Feb-22 00:32N 32°56' W 117°42'199 7.7
2015-Feb-20 22:31N 35°03' W 120°47'9 8.9
2015-Feb-20 21:32N 35°11' W 120°52'177 8.8
2015-Feb-20 01:33N 37°49' W 122°29'2 1.5
2015-Feb-20 00:31N 37°49' W 122°27'0 0.4
2015-Feb-19 23:33N 37°48' W 122°27'1 1.2
2015-Feb-19 22:33N 37°49' W 122°28'1 1.1
2015-Feb-19 21:30N 37°48' W 122°27'0 0.0
2015-Feb-19 20:33N 37°48' W 122°27'0 0.0
2015-Feb-19 19:33N 37°48' W 122°27'0 0.0
2015-Feb-19 18:29N 37°48' W 122°27'0 0.0
2015-Feb-19 17:32N 37°48' W 122°27'0 0.0
2015-Feb-19 16:29N 37°48' W 122°27'0 0.0
2015-Feb-19 15:29N 37°48' W 122°27'0 0.0
2015-Feb-19 14:23N 37°48' W 122°27'0 0.0
2015-Feb-19 13:28N 37°48' W 122°27'0 0.0
2015-Feb-19 12:32N 37°48' W 122°27'0 0.0
2015-Feb-19 11:32N 37°48' W 122°27'0 0.0
2015-Feb-19 10:32N 37°48' W 122°27'0 0.0
2015-Feb-19 09:26N 37°48' W 122°27'0 0.0
2015-Feb-19 08:32N 37°48' W 122°27'0 0.0
2015-Feb-19 07:32N 37°48' W 122°27'0 0.0
2015-Feb-19 06:32N 37°48' W 122°27'0 0.0
2015-Feb-19 05:29N 37°48' W 122°27'0 0.0
2015-Feb-19 04:32N 37°48' W 122°27'0 0.0
2015-Feb-19 03:31N 37°48' W 122°27'0 0.0
2015-Feb-19 02:32N 37°48' W 122°27'0 0.0
2015-Feb-19 01:32N 37°48' W 122°27'0 0.0
2015-Feb-19 00:26N 37°48' W 122°27'0 0.0
2015-Feb-18 23:32N 37°48' W 122°27'4 4.2
2015-Feb-18 22:34N 37°47' W 122°22'4 4.1
2015-Feb-18 21:33N 37°48' W 122°27'0 0.0
2015-Feb-18 20:30N 37°48' W 122°27'0 0.0
2015-Feb-18 19:33N 37°48' W 122°27'0 0.0
2015-Feb-18 18:33N 37°48' W 122°27'0 0.0
2015-Feb-18 17:33N 37°48' W 122°27'0 0.0
2015-Feb-18 16:33N 37°48' W 122°27'0 0.0
2015-Feb-18 15:33N 37°48' W 122°27'0 0.0
2015-Feb-18 14:33N 37°48' W 122°27'0 0.0
2015-Feb-18 13:33N 37°48' W 122°27'0 0.0
2015-Feb-18 12:33N 37°48' W 122°27'0 0.0
2015-Feb-18 11:33N 37°48' W 122°27'0 0.0
2015-Feb-18 10:30N 37°48' W 122°27'0 0.0
2015-Feb-18 09:33N 37°48' W 122°27'0 0.0
2015-Feb-18 08:33N 37°48' W 122°27'0 0.0
2015-Feb-18 07:33N 37°48' W 122°27'0 0.0
2015-Feb-18 06:33N 37°48' W 122°27'0 0.0
2015-Feb-18 05:18N 37°48' W 122°27'0 0.0
2015-Feb-18 04:30N 37°48' W 122°27'0 0.0
2015-Feb-18 03:30N 37°48' W 122°27'0 0.0
2015-Feb-18 02:27N 37°48' W 122°27'0 0.0
2015-Feb-18 01:30N 37°48' W 122°27'0 0.0
2015-Feb-18 00:33N 37°48' W 122°27'0 0.0
2015-Feb-17 23:33N 37°48' W 122°27'0 0.0
2015-Feb-17 22:33N 37°48' W 122°27'0 0.0
2015-Feb-17 21:33N 37°48' W 122°27'  
Track history (hours):
 
Tides and Currents Weather Stations Pressure Air Temp Water Temp Dewpoint Dewpoint Depression Visibility Wind Speed Wind Dir Waves Ship Positions

America

Owner: ET Yacht, LLC, San Diego, CA. More information available from US FCC via Universal Licensing System and Coast Guard Vessel Documentation Center.

Last reported at 2015-Feb-27 21:11 UTC. Time now 2015-Feb-28 06:56 UTC.
Position N 32°37' W 117°22'.

Length 29 m.

Type: Sailing vessel. MMSI: 367375550.

Date/timePositionNaut miles runAvg speedWind from/ knotsBaromVisibWave heightAir tempDewpointWater temp
2015-Feb-27 21:11N 32°37' W 117°22'11 5.3
2015-Feb-27 19:04N 32°43' W 117°12'0 0.0
2015-Feb-26 19:05N 32°43' W 117°12'0 0.0
2015-Feb-26 00:17N 32°43' W 117°12'0 0.2
2015-Feb-25 21:31N 32°43' W 117°11'9 0.4
2015-Feb-24 21:21N 32°37' W 117°19'8 4.1
2015-Feb-24 19:18N 32°43' W 117°12'7 0.2
2015-Feb-22 20:32N 32°36' W 117°15'6 5.6
2015-Feb-22 19:27N 32°42' W 117°13'9 0.6
2015-Feb-22 02:32N 32°44' W 117°24'9 9.4
2015-Feb-22 01:33N 32°50' W 117°33'9 9.2
2015-Feb-22 00:32N 32°56' W 117°42'199 7.7
2015-Feb-20 22:31N 35°03' W 120°47'9 8.9
2015-Feb-20 21:32N 35°11' W 120°52'177 8.8
2015-Feb-20 01:33N 37°49' W 122°29'2 1.5
2015-Feb-20 00:31N 37°49' W 122°27'0 0.4
2015-Feb-19 23:33N 37°48' W 122°27'1 1.2
2015-Feb-19 22:33N 37°49' W 122°28'1 1.1
2015-Feb-19 21:30N 37°48' W 122°27'0 0.0
2015-Feb-19 20:33N 37°48' W 122°27'0 0.0
2015-Feb-19 19:33N 37°48' W 122°27'0 0.0
2015-Feb-19 18:29N 37°48' W 122°27'0 0.0
2015-Feb-19 17:32N 37°48' W 122°27'0 0.0
2015-Feb-19 16:29N 37°48' W 122°27'0 0.0
2015-Feb-19 15:29N 37°48' W 122°27'0 0.0
2015-Feb-19 14:23N 37°48' W 122°27'0 0.0
2015-Feb-19 13:28N 37°48' W 122°27'0 0.0
2015-Feb-19 12:32N 37°48' W 122°27'0 0.0
2015-Feb-19 11:32N 37°48' W 122°27'0 0.0
2015-Feb-19 10:32N 37°48' W 122°27'0 0.0
2015-Feb-19 09:26N 37°48' W 122°27'0 0.0
2015-Feb-19 08:32N 37°48' W 122°27'0 0.0
2015-Feb-19 07:32N 37°48' W 122°27'0 0.0
2015-Feb-19 06:32N 37°48' W 122°27'0 0.0
2015-Feb-19 05:29N 37°48' W 122°27'0 0.0
2015-Feb-19 04:32N 37°48' W 122°27'0 0.0
2015-Feb-19 03:31N 37°48' W 122°27'0 0.0
2015-Feb-19 02:32N 37°48' W 122°27'0 0.0
2015-Feb-19 01:32N 37°48' W 122°27'0 0.0
2015-Feb-19 00:26N 37°48' W 122°27'0 0.0
2015-Feb-18 23:32N 37°48' W 122°27'4 4.2
2015-Feb-18 22:34N 37°47' W 122°22'4 4.1
2015-Feb-18 21:33N 37°48' W 122°27'0 0.0
2015-Feb-18 20:30N 37°48' W 122°27'0 0.0
2015-Feb-18 19:33N 37°48' W 122°27'0 0.0
2015-Feb-18 18:33N 37°48' W 122°27'0 0.0
2015-Feb-18 17:33N 37°48' W 122°27'0 0.0
2015-Feb-18 16:33N 37°48' W 122°27'0 0.0
2015-Feb-18 15:33N 37°48' W 122°27'0 0.0
2015-Feb-18 14:33N 37°48' W 122°27'0 0.0
2015-Feb-18 13:33N 37°48' W 122°27'0 0.0
2015-Feb-18 12:33N 37°48' W 122°27'0 0.0
2015-Feb-18 11:33N 37°48' W 122°27'0 0.0
2015-Feb-18 10:30N 37°48' W 122°27'0 0.0
2015-Feb-18 09:33N 37°48' W 122°27'0 0.0
2015-Feb-18 08:33N 37°48' W 122°27'0 0.0
2015-Feb-18 07:33N 37°48' W 122°27'0 0.0
2015-Feb-18 06:33N 37°48' W 122°27'0 0.0
2015-Feb-18 05:18N 37°48' W 122°27'0 0.0
2015-Feb-18 04:30N 37°48' W 122°27'0 0.0
2015-Feb-18 03:30N 37°48' W 122°27'0 0.0
2015-Feb-18 02:27N 37°48' W 122°27'0 0.0
2015-Feb-18 01:30N 37°48' W 122°27'0 0.0
2015-Feb-18 00:33N 37°48' W 122°27'0 0.0
2015-Feb-17 23:33N 37°48' W 122°27'0 0.0
2015-Feb-17 22:33N 37°48' W 122°27'0 0.0
2015-Feb-17 21:33N 37°48' W 122°27'  

Dump ship's entire track history